Time;durP1;ratioP1;P1;durP2;ratioP2;P2;SDS_P1;SDS_P2;PMS_P1;PMS_P2;Temp;Humidity;BMP_temperature;BMP_pressure;BME280_temperature;BME280_humidity;BME280_pressure;Samples;Min_cycle;Max_cycle;Signal;HPM_P1;HPM_P2
2023/11/21 00:01:04;;;;;;;0.30;0.20;;;;;;;11.65;100.00;99528.25;5009734;28;20962;-49
2023/11/21 00:03:31;;;;;;;0.30;0.20;;;;;;;11.63;100.00;99527.47;5008855;28;20492;-49
2023/11/21 00:05:58;;;;;;;0.30;0.20;;;;;;;11.65;100.00;99522.94;5001190;28;20490;-48
2023/11/21 00:08:24;;;;;;;0.30;0.20;;;;;;;11.70;100.00;99526.25;4997900;28;20853;-48
2023/11/21 00:10:51;;;;;;;0.30;0.20;;;;;;;11.32;100.00;99525.31;5003389;28;20555;-48
2023/11/21 00:13:17;;;;;;;0.30;0.20;;;;;;;11.48;100.00;99524.56;4997957;28;20480;-48
2023/11/21 00:15:44;;;;;;;0.30;0.20;;;;;;;11.57;100.00;99516.16;5002299;28;20867;-48
2023/11/21 00:18:11;;;;;;;0.30;0.20;;;;;;;11.58;100.00;99522.34;5004857;28;20473;-48
2023/11/21 00:20:37;;;;;;;0.30;0.20;;;;;;;11.59;100.00;99518.75;5001481;28;20427;-48
2023/11/21 00:23:04;;;;;;;0.30;0.20;;;;;;;11.51;100.00;99510.25;5007674;28;21005;-48
2023/11/21 00:25:31;;;;;;;0.30;0.20;;;;;;;11.58;100.00;99515.25;5001528;28;20483;-48
2023/11/21 00:27:58;;;;;;;0.30;0.20;;;;;;;11.54;100.00;99513.66;4997939;28;20487;-49
2023/11/21 00:30:25;;;;;;;0.30;0.20;;;;;;;11.48;100.00;99516.56;5003663;28;20878;-48
2023/11/21 00:32:51;;;;;;;0.30;0.20;;;;;;;11.44;100.00;99514.13;5009170;28;20500;-48
2023/11/21 00:35:18;;;;;;;0.30;0.20;;;;;;;11.50;100.00;99519.16;5005422;28;20489;-48
2023/11/21 00:37:44;;;;;;;0.30;0.20;;;;;;;11.50;100.00;99517.38;5010840;28;20477;-48
2023/11/21 00:40:12;;;;;;;0.30;0.20;;;;;;;11.50;100.00;99524.47;5004976;28;20942;-49
2023/11/21 00:42:39;;;;;;;0.30;0.20;;;;;;;11.54;100.00;99524.31;5001372;28;20571;-49
2023/11/21 00:45:06;;;;;;;0.30;0.20;;;;;;;11.54;100.00;99523.44;5010312;28;20934;-49
2023/11/21 00:47:32;;;;;;;0.30;0.20;;;;;;;11.55;100.00;99525.16;5027338;28;20852;-49
2023/11/21 00:49:59;;;;;;;0.60;0.60;;;;;;;11.46;100.00;99525.56;5014154;28;20488;-49
2023/11/21 00:52:26;;;;;;;0.40;0.20;;;;;;;11.47;100.00;99522.84;5001121;28;20488;-49
2023/11/21 00:54:52;;;;;;;0.30;0.20;;;;;;;11.47;100.00;99528.16;5002960;28;20610;-49
2023/11/21 00:57:19;;;;;;;0.30;0.20;;;;;;;11.48;100.00;99534.34;5008089;28;20479;-49
2023/11/21 00:59:45;;;;;;;0.30;0.20;;;;;;;11.44;100.00;99527.44;5006234;28;20452;-49
2023/11/21 01:02:12;;;;;;;0.30;0.20;;;;;;;11.50;100.00;99522.69;5012396;28;20499;-48
2023/11/21 01:04:38;;;;;;;0.30;0.20;;;;;;;11.46;100.00;99522.91;5002287;28;20524;-48
2023/11/21 01:07:05;;;;;;;0.30;0.20;;;;;;;11.40;100.00;99531.16;5007139;28;20924;-49
2023/11/21 01:09:32;;;;;;;0.30;0.20;;;;;;;11.49;100.00;99526.28;5007001;28;20452;-49
2023/11/21 01:11:59;;;;;;;0.30;0.20;;;;;;;11.43;100.00;99531.91;5001103;28;20491;-48
2023/11/21 01:14:29;;;;;;;0.30;0.20;;;;;;;11.48;100.00;99535.19;5001347;28;20947;-48
2023/11/21 01:16:55;;;;;;;0.30;0.20;;;;;;;11.45;100.00;99532.69;5006870;28;20911;-49
2023/11/21 01:19:22;;;;;;;0.30;0.20;;;;;;;11.49;100.00;99542.25;5007490;28;20532;-49
2023/11/21 01:21:48;;;;;;;0.30;0.20;;;;;;;11.47;100.00;99543.25;5000976;28;20464;-49
2023/11/21 01:24:15;;;;;;;0.30;0.20;;;;;;;11.31;100.00;99542.22;5004765;28;20449;-49
2023/11/21 01:26:41;;;;;;;0.30;0.20;;;;;;;11.31;100.00;99543.06;5001019;28;20474;-49
2023/11/21 01:29:08;;;;;;;0.30;0.20;;;;;;;11.38;100.00;99539.22;5000428;28;20499;-48
2023/11/21 01:31:34;;;;;;;0.30;0.20;;;;;;;11.39;100.00;99534.78;5013695;28;20448;-49
2023/11/21 01:34:01;;;;;;;0.30;0.20;;;;;;;11.42;100.00;99540.81;5012453;28;20452;-49
2023/11/21 01:36:32;;;;;;;0.30;0.20;;;;;;;11.41;100.00;99546.19;5000968;28;20477;-49
2023/11/21 01:38:59;;;;;;;0.30;0.20;;;;;;;11.37;100.00;99541.94;5000501;28;20563;-49
2023/11/21 01:41:27;;;;;;;0.30;0.20;;;;;;;11.42;100.00;99547.94;5005570;28;20468;-49
2023/11/21 01:43:54;;;;;;;0.30;0.20;;;;;;;11.36;100.00;99562.34;5006147;28;20470;-48
2023/11/21 01:46:22;;;;;;;0.30;0.20;;;;;;;11.36;100.00;99561.50;5013059;28;20492;-49
2023/11/21 01:48:49;;;;;;;0.30;0.20;;;;;;;11.34;100.00;99558.91;4999958;28;20819;-49
2023/11/21 01:51:16;;;;;;;0.30;0.20;;;;;;;11.35;100.00;99567.75;5005064;28;20485;-48
2023/11/21 01:53:45;;;;;;;0.30;0.20;;;;;;;11.35;100.00;99565.06;4996788;28;20445;-49
2023/11/21 01:56:12;;;;;;;0.30;0.20;;;;;;;11.39;100.00;99567.56;5004187;28;20455;-48
2023/11/21 01:58:39;;;;;;;0.30;0.20;;;;;;;11.38;100.00;99564.97;5006819;28;20480;-49
2023/11/21 02:01:06;;;;;;;0.30;0.20;;;;;;;11.38;100.00;99571.16;5002313;28;20823;-48
2023/11/21 02:03:32;;;;;;;0.30;0.20;;;;;;;11.36;100.00;99573.00;5010566;28;20491;-48
2023/11/21 02:05:58;;;;;;;0.30;0.20;;;;;;;11.32;100.00;99565.22;5002148;28;20905;-48
2023/11/21 02:08:26;;;;;;;0.30;0.20;;;;;;;11.25;100.00;99561.97;5009637;28;20519;-49
2023/11/21 02:10:53;;;;;;;0.30;0.20;;;;;;;11.38;100.00;99562.31;5002633;28;20456;-48
2023/11/21 02:13:19;;;;;;;0.30;0.20;;;;;;;11.62;100.00;99565.66;4999443;28;20454;-50
2023/11/21 02:15:47;;;;;;;0.30;0.20;;;;;;;11.37;100.00;99574.72;5003688;28;20457;-48
2023/11/21 02:18:15;;;;;;;0.30;0.20;;;;;;;11.47;100.00;99570.72;5005558;28;20443;-49
2023/11/21 02:20:42;;;;;;;0.30;0.20;;;;;;;11.56;100.00;99567.69;5003370;28;20456;-49
2023/11/21 02:23:09;;;;;;;0.30;0.20;;;;;;;11.46;100.00;99573.47;4999547;28;20874;-48
2023/11/21 02:25:37;;;;;;;0.30;0.20;;;;;;;11.48;100.00;99575.13;5002475;28;20464;-48
2023/11/21 02:28:04;;;;;;;0.30;0.20;;;;;;;11.51;100.00;99576.78;5005949;28;20532;-48
2023/11/21 02:30:33;;;;;;;0.30;0.20;;;;;;;11.26;100.00;99580.53;5003898;28;20463;-48
2023/11/21 02:33:01;;;;;;;0.30;0.20;;;;;;;11.37;100.00;99585.38;5007094;28;20516;-48
2023/11/21 02:35:28;;;;;;;0.30;0.20;;;;;;;11.24;100.00;99581.53;5004953;28;20453;-48
2023/11/21 02:37:55;;;;;;;0.30;0.20;;;;;;;11.32;100.00;99582.03;4999107;28;20468;-48
2023/11/21 02:40:24;;;;;;;0.30;0.20;;;;;;;11.07;100.00;99587.53;5000662;28;20461;-48
2023/11/21 02:42:51;;;;;;;0.30;0.20;;;;;;;11.32;100.00;99582.03;5005443;28;20481;-48
2023/11/21 02:45:20;;;;;;;0.30;0.20;;;;;;;11.32;100.00;99582.03;5004806;28;20479;-49
2023/11/21 02:47:49;;;;;;;0.30;0.20;;;;;;;11.22;100.00;99576.25;4999091;28;20489;-49
2023/11/21 02:50:15;;;;;;;0.30;0.20;;;;;;;11.28;100.00;99581.31;4999548;28;20790;-49
2023/11/21 02:52:42;;;;;;;0.30;0.20;;;;;;;11.13;100.00;99587.28;5005257;28;20477;-48
2023/11/21 02:55:08;;;;;;;0.30;0.20;;;;;;;11.23;100.00;99587.75;5004880;28;20427;-48
2023/11/21 02:57:35;;;;;;;0.30;0.20;;;;;;;11.23;100.00;99593.06;5002656;28;20473;-49
2023/11/21 03:00:02;;;;;;;0.30;0.20;;;;;;;11.30;100.00;99586.56;5005428;28;20427;-49
2023/11/21 03:02:28;;;;;;;0.30;0.20;;;;;;;11.28;100.00;99591.09;5011177;28;21368;-48
2023/11/21 03:04:55;;;;;;;0.30;0.20;;;;;;;11.30;100.00;99589.22;4999067;28;20489;-49
2023/11/21 03:07:22;;;;;;;0.30;0.20;;;;;;;11.26;100.00;99604.47;5003785;28;20487;-49
2023/11/21 03:09:48;;;;;;;0.30;0.20;;;;;;;11.20;100.00;99602.06;5005657;28;21026;-49
2023/11/21 03:12:15;;;;;;;0.30;0.20;;;;;;;11.12;100.00;99603.31;5000341;28;20953;-48
2023/11/21 03:14:42;;;;;;;0.30;0.20;;;;;;;11.08;100.00;99601.69;4998459;28;20485;-49
2023/11/21 03:17:08;;;;;;;0.30;0.20;;;;;;;11.11;100.00;99599.81;5003964;28;20552;-49
2023/11/21 03:19:35;;;;;;;0.30;0.20;;;;;;;11.05;100.00;99604.50;5009224;28;20456;-48
2023/11/21 03:22:01;;;;;;;0.30;0.20;;;;;;;11.13;100.00;99602.41;5000302;28;20491;-49
2023/11/21 03:24:28;;;;;;;0.30;0.20;;;;;;;11.14;100.00;99606.78;4998684;28;20815;-49
2023/11/21 03:26:54;;;;;;;0.30;0.20;;;;;;;11.05;100.00;99621.31;5003468;28;20888;-49
2023/11/21 03:29:21;;;;;;;0.30;0.20;;;;;;;10.91;100.00;99613.03;5005289;28;20942;-48
2023/11/21 03:31:47;;;;;;;0.30;0.20;;;;;;;11.06;100.00;99616.84;4997083;28;20438;-49
2023/11/21 03:34:27;;;;;;;0.30;0.20;;;;;;;11.03;100.00;99624.97;5005085;28;20452;-49
2023/11/21 03:36:54;;;;;;;0.30;0.20;;;;;;;11.01;100.00;99619.72;5002643;28;21032;-48
2023/11/21 03:39:22;;;;;;;0.30;0.20;;;;;;;10.96;100.00;99619.03;4998508;28;20535;-48
2023/11/21 03:41:49;;;;;;;0.30;0.20;;;;;;;10.98;100.00;99630.50;5000696;28;20439;-48
2023/11/21 03:44:17;;;;;;;0.30;0.20;;;;;;;11.07;100.00;99624.78;5004916;28;20841;-48
2023/11/21 03:46:44;;;;;;;0.30;0.20;;;;;;;11.20;100.00;99620.69;5022146;28;20487;-48
2023/11/21 03:49:10;;;;;;;1.27;1.27;;;;;;;11.25;100.00;99633.81;5008806;28;20454;-49
2023/11/21 03:51:37;;;;;;;0.40;0.40;;;;;;;11.25;100.00;99625.81;5003121;28;20482;-49
2023/11/21 03:54:04;;;;;;;0.30;0.20;;;;;;;11.30;100.00;99637.13;4998189;28;20452;-48
2023/11/21 03:56:45;;;;;;;0.30;0.20;;;;;;;11.29;100.00;99640.72;5001882;28;20539;-49
2023/11/21 03:59:12;;;;;;;0.30;0.20;;;;;;;11.25;100.00;99639.13;4999102;28;20475;-48
2023/11/21 04:01:38;;;;;;;0.30;0.20;;;;;;;11.19;100.00;99639.38;5009515;28;20476;-48
2023/11/21 04:04:05;;;;;;;0.30;0.20;;;;;;;11.22;100.00;99649.88;5004345;28;20489;-49
2023/11/21 04:06:32;;;;;;;0.30;0.20;;;;;;;11.31;100.00;99645.97;5005711;28;20480;-48
2023/11/21 04:08:59;;;;;;;0.30;0.20;;;;;;;11.29;100.00;99635.41;5003188;28;20463;-49
2023/11/21 04:11:25;;;;;;;0.30;0.20;;;;;;;11.22;100.00;99647.22;5005307;28;20430;-48
2023/11/21 04:13:52;;;;;;;0.30;0.20;;;;;;;11.17;100.00;99651.88;5007093;28;20428;-48
2023/11/21 04:16:18;;;;;;;0.30;0.20;;;;;;;11.17;100.00;99654.53;5008606;28;20499;-48
2023/11/21 04:18:45;;;;;;;0.30;0.20;;;;;;;11.27;100.00;99658.53;5007393;28;20452;-48
2023/11/21 04:21:12;;;;;;;0.30;0.20;;;;;;;11.15;100.00;99667.03;5008338;28;20933;-49
2023/11/21 04:23:39;;;;;;;0.30;0.20;;;;;;;11.25;100.00;99671.06;5002597;28;20491;-48
2023/11/21 04:26:06;;;;;;;0.30;0.20;;;;;;;11.14;100.00;99670.63;5001657;28;20449;-48
2023/11/21 04:28:33;;;;;;;0.40;0.20;;;;;;;11.06;100.00;99673.56;5013337;28;20476;-49
2023/11/21 04:30:59;;;;;;;0.30;0.20;;;;;;;11.54;100.00;99669.81;5006726;28;20531;-49
2023/11/21 04:33:26;;;;;;;0.30;0.20;;;;;;;11.81;100.00;99671.34;5006794;28;20452;-48
2023/11/21 04:35:53;;;;;;;0.87;0.83;;;;;;;11.53;100.00;99670.75;5007029;28;20532;-48
2023/11/21 04:38:19;;;;;;;0.30;0.20;;;;;;;11.89;100.00;99672.78;5003172;28;20910;-49
2023/11/21 04:40:46;;;;;;;0.30;0.20;;;;;;;11.77;100.00;99679.47;5001598;28;20936;-49
2023/11/21 04:43:13;;;;;;;0.30;0.20;;;;;;;11.66;100.00;99669.31;5006102;28;20495;-49
2023/11/21 04:45:41;;;;;;;0.30;0.20;;;;;;;11.53;100.00;99686.72;5012075;28;20471;-49
2023/11/21 04:48:08;;;;;;;0.30;0.20;;;;;;;11.54;100.00;99670.69;5024870;28;20481;-48
2023/11/21 04:50:34;;;;;;;0.30;0.20;;;;;;;11.65;100.00;99677.31;5001139;28;20965;-49
2023/11/21 04:53:01;;;;;;;0.30;0.20;;;;;;;11.37;100.00;99685.63;5005034;28;20457;-49
2023/11/21 04:55:28;;;;;;;0.30;0.20;;;;;;;11.42;100.00;99673.88;5007865;28;20802;-48
2023/11/21 04:57:54;;;;;;;0.30;0.20;;;;;;;11.24;100.00;99685.28;5004037;28;20473;-49
2023/11/21 05:00:21;;;;;;;0.30;0.20;;;;;;;11.28;100.00;99690.41;5001090;28;20460;-48
2023/11/21 05:02:47;;;;;;;0.30;0.20;;;;;;;11.74;100.00;99693.78;5014129;28;20950;-49
2023/11/21 05:05:14;;;;;;;0.30;0.20;;;;;;;11.69;100.00;99697.59;5000997;28;20463;-49
2023/11/21 05:07:41;;;;;;;0.30;0.20;;;;;;;11.47;100.00;99706.47;5003303;28;21002;-49
2023/11/21 05:10:11;;;;;;;0.30;0.20;;;;;;;11.48;100.00;99716.19;5007466;28;20540;-49
2023/11/21 05:12:38;;;;;;;0.40;0.30;;;;;;;11.76;100.00;99720.34;5005975;28;20488;-49
2023/11/21 05:15:12;;;;;;;0.30;0.20;;;;;;;11.90;100.00;99720.66;5000846;28;20944;-49
2023/11/21 05:17:42;;;;;;;0.30;0.20;;;;;;;11.66;100.00;99729.66;5000904;28;21134;-48
2023/11/21 05:20:13;;;;;;;0.30;0.20;;;;;;;11.64;100.00;99732.38;5000865;28;20851;-49
2023/11/21 05:22:41;;;;;;;0.30;0.20;;;;;;;11.60;100.00;99730.78;5000813;28;20496;-49
2023/11/21 05:25:09;;;;;;;0.30;0.20;;;;;;;11.40;100.00;99736.94;5004517;28;20493;-49
2023/11/21 05:27:35;;;;;;;0.30;0.20;;;;;;;11.66;100.00;99733.19;5007148;28;20825;-49
2023/11/21 05:30:09;;;;;;;0.30;0.20;;;;;;;11.93;100.00;99733.84;5002350;28;20879;-48
2023/11/21 05:32:35;;;;;;;0.30;0.20;;;;;;;11.80;100.00;99743.31;5006977;28;20461;-48
2023/11/21 05:35:02;;;;;;;0.30;0.20;;;;;;;11.86;100.00;99740.38;5003872;28;20451;-48
2023/11/21 05:37:29;;;;;;;0.30;0.20;;;;;;;11.84;100.00;99742.22;5000382;28;21043;-49
2023/11/21 05:39:56;;;;;;;0.30;0.20;;;;;;;11.78;100.00;99753.09;5003367;28;20453;-49
2023/11/21 05:42:23;;;;;;;0.30;0.20;;;;;;;11.75;100.00;99755.88;5007017;28;20481;-48
2023/11/21 05:44:50;;;;;;;0.30;0.20;;;;;;;11.73;100.00;99760.41;5003912;28;21009;-52
2023/11/21 05:47:17;;;;;;;0.30;0.20;;;;;;;11.48;100.00;99763.22;5026360;28;20471;-49
2023/11/21 05:49:45;;;;;;;0.30;0.20;;;;;;;11.54;100.00;99769.19;5004341;28;20784;-49
2023/11/21 05:52:11;;;;;;;0.30;0.20;;;;;;;11.75;100.00;99767.41;5006770;28;20453;-49
2023/11/21 05:54:38;;;;;;;0.30;0.20;;;;;;;11.64;100.00;99760.78;5003178;28;20444;-49
2023/11/21 05:57:04;;;;;;;0.30;0.20;;;;;;;11.50;100.00;99775.53;4999851;28;20900;-49
2023/11/21 05:59:31;;;;;;;0.30;0.20;;;;;;;11.70;100.00;99776.53;5003594;28;20449;-49
2023/11/21 06:01:58;;;;;;;0.30;0.20;;;;;;;11.41;100.00;99775.06;5009993;28;20551;-49
2023/11/21 06:04:25;;;;;;;0.30;0.20;;;;;;;11.70;100.00;99772.06;5002806;28;20467;-50
2023/11/21 06:06:52;;;;;;;0.30;0.20;;;;;;;11.67;100.00;99768.66;5006398;28;20539;-49
2023/11/21 06:09:19;;;;;;;0.30;0.20;;;;;;;11.49;100.00;99780.91;5004173;28;20472;-49
2023/11/21 06:11:46;;;;;;;0.30;0.20;;;;;;;11.46;100.00;99784.56;4999612;28;20864;-49
2023/11/21 06:14:12;;;;;;;0.30;0.20;;;;;;;11.67;100.00;99792.63;5002283;28;20453;-49
2023/11/21 06:16:40;;;;;;;0.30;0.20;;;;;;;11.44;100.00;99793.56;5006517;28;20469;-49
2023/11/21 06:19:06;;;;;;;0.30;0.20;;;;;;;11.38;100.00;99796.47;5004292;28;20427;-49
2023/11/21 06:21:33;;;;;;;0.30;0.20;;;;;;;11.26;100.00;99806.66;4999861;28;20519;-49
2023/11/21 06:24:01;;;;;;;0.30;0.20;;;;;;;11.25;100.00;99817.38;5001183;28;20493;-50
2023/11/21 06:26:28;;;;;;;0.30;0.20;;;;;;;11.19;100.00;99813.13;5005968;28;20468;-49
2023/11/21 06:28:54;;;;;;;0.30;0.20;;;;;;;11.32;100.00;99813.53;5005060;28;20458;-49
2023/11/21 06:31:21;;;;;;;0.30;0.20;;;;;;;11.54;100.00;99813.56;5003358;28;20449;-49
2023/11/21 06:33:49;;;;;;;0.30;0.20;;;;;;;11.38;100.00;99813.31;5000424;28;20899;-50
2023/11/21 06:36:16;;;;;;;0.30;0.20;;;;;;;11.56;100.00;99819.69;5005993;28;20958;-49
2023/11/21 06:38:42;;;;;;;0.30;0.20;;;;;;;11.67;100.00;99820.13;5005140;28;20461;-50
2023/11/21 06:41:09;;;;;;;0.30;0.20;;;;;;;11.47;100.00;99823.56;4999259;28;20961;-49
2023/11/21 06:43:35;;;;;;;0.30;0.20;;;;;;;11.36;100.00;99825.78;5000002;28;20494;-49
2023/11/21 06:46:04;;;;;;;0.30;0.20;;;;;;;11.24;100.00;99835.13;5017151;28;20505;-49
2023/11/21 06:48:31;;;;;;;0.30;0.20;;;;;;;11.35;100.00;99836.50;5019495;28;20551;-52
2023/11/21 06:50:57;;;;;;;0.30;0.20;;;;;;;11.31;100.00;99843.72;4999060;28;20478;-48
2023/11/21 06:53:24;;;;;;;0.30;0.20;;;;;;;11.57;100.00;99840.91;4999457;28;20463;-49
2023/11/21 06:55:51;;;;;;;0.30;0.20;;;;;;;11.47;100.00;99842.19;5005834;28;20446;-49
2023/11/21 06:58:17;;;;;;;0.30;0.20;;;;;;;11.65;100.00;99856.59;5005460;28;20483;-49
2023/11/21 07:00:46;;;;;;;0.30;0.20;;;;;;;11.63;100.00;99861.09;4999123;28;20904;-49
2023/11/21 07:03:13;;;;;;;0.30;0.20;;;;;;;11.52;100.00;99868.66;5026817;28;20457;-48
2023/11/21 07:05:40;;;;;;;0.30;0.20;;;;;;;11.78;100.00;99863.13;4999216;28;20489;-49
2023/11/21 07:08:07;;;;;;;0.30;0.20;;;;;;;11.65;100.00;99869.00;4998138;28;20500;-48
2023/11/21 07:10:36;;;;;;;0.33;0.20;;;;;;;11.31;100.00;99872.13;5005487;28;20575;-48
2023/11/21 07:13:03;;;;;;;0.30;0.20;;;;;;;11.24;100.00;99875.03;5005339;28;20510;-49
2023/11/21 07:15:29;;;;;;;0.30;0.20;;;;;;;11.49;100.00;99882.91;5000319;28;20456;-49
2023/11/21 07:17:56;;;;;;;0.30;0.20;;;;;;;11.52;100.00;99880.16;4998471;28;20477;-49
2023/11/21 07:20:23;;;;;;;0.30;0.20;;;;;;;11.65;100.00;99875.22;5003827;28;20508;-49
2023/11/21 07:22:50;;;;;;;0.47;0.47;;;;;;;11.50;100.00;99887.31;5005342;28;20476;-49
2023/11/21 07:25:16;;;;;;;0.30;0.20;;;;;;;11.48;100.00;99894.50;5000516;28;20500;-48
2023/11/21 07:27:43;;;;;;;0.30;0.20;;;;;;;11.55;100.00;99903.13;4998518;28;20576;-49
2023/11/21 07:30:10;;;;;;;0.30;0.20;;;;;;;11.74;100.00;99909.47;5003794;28;20457;-49
2023/11/21 07:32:39;;;;;;;0.30;0.20;;;;;;;11.64;100.00;99910.75;5005326;28;20495;-49
2023/11/21 07:35:07;;;;;;;0.30;0.20;;;;;;;11.67;100.00;99909.78;5000596;28;20459;-48
2023/11/21 07:37:34;;;;;;;0.30;0.20;;;;;;;11.50;100.00;99919.25;4998698;28;20564;-49
2023/11/21 07:40:01;;;;;;;0.30;0.20;;;;;;;11.24;100.00;99912.28;5002855;28;21010;-48
2023/11/21 07:42:27;;;;;;;0.30;0.20;;;;;;;11.63;100.00;99917.00;5007862;28;20471;-48
2023/11/21 07:44:53;;;;;;;0.30;0.20;;;;;;;11.70;100.00;99920.31;5005109;28;20909;-53
2023/11/21 07:47:20;;;;;;;0.30;0.20;;;;;;;11.63;100.00;99927.63;5028221;28;20852;-48
2023/11/21 07:49:47;;;;;;;0.30;0.20;;;;;;;11.54;100.00;99928.00;5005797;28;20808;-51
2023/11/21 07:52:16;;;;;;;0.30;0.20;;;;;;;11.56;100.00;99932.34;5008839;28;20504;-51
2023/11/21 07:54:43;;;;;;;0.30;0.20;;;;;;;11.71;100.00;99935.34;5006400;28;20514;-54
2023/11/21 07:57:13;;;;;;;0.30;0.20;;;;;;;11.68;100.00;99938.13;5002124;28;20480;-51
2023/11/21 07:59:40;;;;;;;0.30;0.20;;;;;;;11.82;100.00;99941.16;5004470;28;20503;-50
2023/11/21 08:02:07;;;;;;;0.30;0.20;;;;;;;12.03;100.00;99944.75;5013611;28;20459;-55
2023/11/21 08:04:35;;;;;;;0.30;0.20;;;;;;;11.75;100.00;99939.63;5003896;28;20841;-50
2023/11/21 08:07:03;;;;;;;0.30;0.20;;;;;;;11.94;100.00;99953.13;5008763;28;20990;-54
2023/11/21 08:09:30;;;;;;;0.30;0.20;;;;;;;11.80;100.00;99953.66;5007615;28;20498;-52
2023/11/21 08:11:57;;;;;;;0.30;0.20;;;;;;;11.66;100.00;99961.28;5000661;28;20503;-54
2023/11/21 08:14:25;;;;;;;0.30;0.20;;;;;;;11.65;100.00;99963.09;5002610;28;20938;-55
2023/11/21 08:16:52;;;;;;;0.30;0.20;;;;;;;11.77;100.00;99953.72;5008725;28;20535;-55
2023/11/21 08:19:19;;;;;;;0.30;0.20;;;;;;;11.67;100.00;99955.91;5008784;28;20525;-56
2023/11/21 08:21:45;;;;;;;0.30;0.20;;;;;;;11.72;100.00;99959.25;5001780;28;20459;-56
2023/11/21 08:24:12;;;;;;;0.30;0.20;;;;;;;11.57;100.00;99963.38;5002143;28;20497;-55
2023/11/21 08:26:38;;;;;;;0.30;0.20;;;;;;;11.79;100.00;99967.91;5008376;28;20889;-48
2023/11/21 08:29:06;;;;;;;0.30;0.20;;;;;;;11.64;100.00;99971.09;5008082;28;20486;-48
2023/11/21 08:31:33;;;;;;;0.30;0.20;;;;;;;11.51;100.00;99970.69;5006313;28;20535;-48
2023/11/21 08:34:02;;;;;;;0.30;0.20;;;;;;;11.50;100.00;99980.47;5005192;28;20977;-48
2023/11/21 08:36:31;;;;;;;0.30;0.20;;;;;;;11.58;100.00;99974.88;5014883;28;21114;-48
2023/11/21 08:38:58;;;;;;;0.30;0.20;;;;;;;11.57;100.00;99982.00;5001406;28;20449;-48
2023/11/21 08:41:24;;;;;;;0.30;0.20;;;;;;;11.69;100.00;99980.66;5007141;28;20454;-48
2023/11/21 08:43:51;;;;;;;0.30;0.20;;;;;;;11.47;100.00;99988.59;5007954;28;20488;-48
2023/11/21 08:46:18;;;;;;;0.30;0.20;;;;;;;11.65;100.00;99986.16;5018363;28;20454;-48
2023/11/21 08:48:46;;;;;;;0.30;0.20;;;;;;;11.58;100.00;99997.03;5018433;28;20867;-48
2023/11/21 08:51:13;;;;;;;0.30;0.20;;;;;;;11.36;100.00;99997.88;5002926;28;20460;-49
2023/11/21 08:53:40;;;;;;;0.30;0.20;;;;;;;11.54;100.00;100003.41;4999940;28;20450;-48
2023/11/21 08:56:09;;;;;;;0.30;0.20;;;;;;;11.46;100.00;99996.63;5005966;28;20904;-48
2023/11/21 08:58:37;;;;;;;0.30;0.20;;;;;;;11.52;99.51;99999.94;5007964;28;20503;-48
2023/11/21 09:01:04;;;;;;;0.30;0.20;;;;;;;11.66;99.73;99995.91;5003728;28;20555;-48
2023/11/21 09:03:33;;;;;;;0.30;0.20;;;;;;;11.74;99.81;100001.78;5011544;28;20818;-49
2023/11/21 09:06:00;;;;;;;0.30;0.20;;;;;;;11.65;99.47;100002.13;5004266;28;20861;-48
2023/11/21 09:08:29;;;;;;;0.30;0.20;;;;;;;11.52;100.00;100007.94;5000847;28;20539;-48
2023/11/21 09:10:56;;;;;;;0.30;0.20;;;;;;;11.55;99.82;100006.94;5003964;28;20477;-48
2023/11/21 09:13:25;;;;;;;0.30;0.20;;;;;;;11.57;99.54;100011.28;5007798;28;20449;-48
2023/11/21 09:15:51;;;;;;;0.30;0.20;;;;;;;11.51;99.79;100019.50;5004934;28;20806;-48
2023/11/21 09:18:19;;;;;;;0.30;0.20;;;;;;;11.73;99.94;100021.34;4999506;28;20526;-48
2023/11/21 09:20:45;;;;;;;0.30;0.20;;;;;;;11.73;98.95;100026.69;5003617;28;20445;-49
2023/11/21 09:23:12;;;;;;;0.30;0.20;;;;;;;11.93;98.07;100029.50;5007293;28;20476;-49
2023/11/21 09:25:38;;;;;;;0.30;0.20;;;;;;;11.99;98.62;100036.38;5005243;28;20500;-48
2023/11/21 09:28:08;;;;;;;0.30;0.20;;;;;;;12.00;98.16;100038.13;5000813;28;20473;-49
2023/11/21 09:30:35;;;;;;;0.30;0.20;;;;;;;11.87;98.70;100037.72;5006296;28;20488;-48
2023/11/21 09:33:02;;;;;;;0.30;0.20;;;;;;;12.06;98.49;100040.53;5009251;28;20525;-48
2023/11/21 09:35:29;;;;;;;4.90;2.57;;;;;;;12.01;97.44;100039.84;5005106;28;20834;-48
2023/11/21 09:37:55;;;;;;;0.30;0.20;;;;;;;12.00;97.84;100046.09;5000379;28;20510;-49
2023/11/21 09:40:22;;;;;;;0.30;0.20;;;;;;;11.98;97.13;100048.81;5002183;28;20813;-49
2023/11/21 09:42:55;;;;;;;0.30;0.20;;;;;;;11.84;97.77;100043.16;5006916;28;20465;-49
2023/11/21 09:45:26;;;;;;;0.30;0.20;;;;;;;11.62;97.92;100052.81;5006337;28;21051;-49
2023/11/21 09:47:55;;;;;;;0.30;0.20;;;;;;;11.67;99.20;100064.19;4999974;28;20475;-48
2023/11/21 09:50:23;;;;;;;0.30;0.20;;;;;;;11.82;99.36;100058.34;5000118;28;20461;-49
2023/11/21 09:53:16;;;;;;;0.30;0.20;;;;;;;11.92;98.85;100061.50;5005241;28;20980;-48
2023/11/21 09:55:44;;;;;;;0.30;0.20;;;;;;;11.92;99.84;100066.81;5002331;28;20875;-48
2023/11/21 09:58:13;;;;;;;0.30;0.20;;;;;;;12.04;97.26;100069.03;5005465;28;20480;-48
2023/11/21 10:00:45;;;;;;;0.30;0.20;;;;;;;12.08;97.05;100068.88;4999876;28;20453;-49
2023/11/21 10:03:13;;;;;;;0.30;0.20;;;;;;;12.10;96.60;100067.00;5012861;28;20487;-49
2023/11/21 10:05:42;;;;;;;0.30;0.20;;;;;;;12.14;96.41;100067.75;5000231;28;21381;-48
2023/11/21 10:08:10;;;;;;;0.30;0.20;;;;;;;12.18;97.18;100072.03;4999386;28;20489;-49
2023/11/21 10:10:41;;;;;;;0.30;0.20;;;;;;;12.31;98.34;100067.97;5005640;28;20520;-49
2023/11/21 10:13:12;;;;;;;0.30;0.20;;;;;;;12.35;97.55;100082.06;5006537;28;20464;-48
2023/11/21 10:15:44;;;;;;;0.30;0.20;;;;;;;12.13;98.22;100080.22;5002095;28;20441;-49
2023/11/21 10:18:12;;;;;;;0.30;0.20;;;;;;;12.37;98.49;100094.38;4999718;28;20468;-49
2023/11/21 10:20:38;;;;;;;0.30;0.20;;;;;;;12.17;97.41;100099.59;5003115;28;20461;-48
2023/11/21 10:23:07;;;;;;;0.30;0.20;;;;;;;12.44;96.34;100103.00;5006214;28;20457;-49
2023/11/21 10:25:35;;;;;;;0.30;0.20;;;;;;;12.21;95.78;100100.38;5003383;28;20516;-48
2023/11/21 10:28:06;;;;;;;0.30;0.20;;;;;;;12.28;96.23;100112.53;4999505;28;20911;-48
2023/11/21 10:30:38;;;;;;;0.30;0.20;;;;;;;12.36;96.23;100107.78;5004619;28;20524;-48
2023/11/21 10:33:05;;;;;;;0.30;0.20;;;;;;;12.42;95.68;100110.19;5007303;28;20450;-48
2023/11/21 10:35:54;;;;;;;0.30;0.20;;;;;;;12.54;96.14;100109.72;5005231;28;20484;-49
2023/11/21 10:38:23;;;;;;;0.30;0.20;;;;;;;12.52;94.80;100111.59;5003842;28;20836;-48
2023/11/21 10:40:50;;;;;;;0.30;0.20;;;;;;;12.69;94.45;100109.09;5005974;28;20468;-48
2023/11/21 10:43:18;;;;;;;0.30;0.20;;;;;;;12.50;93.29;100113.44;5002144;28;20829;-48
2023/11/21 10:45:45;;;;;;;0.30;0.20;;;;;;;12.72;93.99;100103.63;5010550;28;20545;-48
2023/11/21 10:48:15;;;;;;;0.30;0.20;;;;;;;12.99;94.32;100106.09;5022236;28;20468;-49
2023/11/21 10:50:46;;;;;;;0.30;0.20;;;;;;;12.91;93.36;100105.56;4999221;28;20452;-49
2023/11/21 10:53:13;;;;;;;0.30;0.20;;;;;;;13.07;92.08;100111.16;5001321;28;20955;-48
2023/11/21 10:55:40;;;;;;;0.30;0.20;;;;;;;12.96;92.62;100100.91;5004834;28;20499;-48
2023/11/21 10:58:10;;;;;;;0.30;0.20;;;;;;;13.12;91.92;100104.66;5004324;28;20477;-48
2023/11/21 11:00:39;;;;;;;0.30;0.20;;;;;;;12.95;92.10;100104.50;4999038;28;20460;-49
2023/11/21 11:03:13;;;;;;;0.30;0.20;;;;;;;13.12;91.87;100110.00;5012263;28;20531;-48
2023/11/21 11:05:42;;;;;;;0.30;0.20;;;;;;;13.27;90.92;100105.84;5005479;28;20497;-48
2023/11/21 11:08:12;;;;;;;0.30;0.20;;;;;;;13.31;91.82;100104.81;5005189;28;20451;-48
2023/11/21 11:10:39;;;;;;;0.30;0.20;;;;;;;13.19;91.11;100106.19;4999994;28;20527;-48
2023/11/21 11:13:07;;;;;;;0.30;0.20;;;;;;;13.11;91.93;100108.28;4998638;28;20966;-48
2023/11/21 11:15:33;;;;;;;0.30;0.20;;;;;;;13.21;90.97;100107.00;5004140;28;20774;-48
2023/11/21 11:18:03;;;;;;;0.30;0.20;;;;;;;13.20;90.71;100110.59;5004775;28;20476;-48
2023/11/21 11:20:34;;;;;;;0.30;0.20;;;;;;;13.19;90.26;100102.66;5000886;28;20456;-48
2023/11/21 11:23:19;;;;;;;0.30;0.20;;;;;;;13.31;89.06;100091.47;4998610;28;20453;-48
2023/11/21 11:26:08;;;;;;;0.30;0.20;;;;;;;13.25;90.35;100092.56;5000243;28;20488;-48